sensor_id;sensor_type;location;lat;lon;timestamp;P1;durP1;ratioP1;P2;durP2;ratioP2
24389;SDS011;12510;56.468;-3.004;2022-08-19T00:01:26;6.57;;;1.90;;
24389;SDS011;12510;56.468;-3.004;2022-08-19T00:03:58;7.35;;;2.20;;
24389;SDS011;12510;56.468;-3.004;2022-08-19T00:06:30;6.85;;;2.35;;
24389;SDS011;12510;56.468;-3.004;2022-08-19T00:08:57;11.38;;;2.70;;
24389;SDS011;12510;56.468;-3.004;2022-08-19T00:11:26;9.25;;;2.53;;
24389;SDS011;12510;56.468;-3.004;2022-08-19T00:13:53;7.47;;;2.72;;
24389;SDS011;12510;56.468;-3.004;2022-08-19T00:16:23;11.27;;;3.07;;
24389;SDS011;12510;56.468;-3.004;2022-08-19T00:18:50;9.48;;;2.35;;
24389;SDS011;12510;56.468;-3.004;2022-08-19T00:21:17;9.05;;;2.67;;
24389;SDS011;12510;56.468;-3.004;2022-08-19T00:23:43;7.47;;;2.50;;
24389;SDS011;12510;56.468;-3.004;2022-08-19T00:26:10;10.38;;;2.58;;
24389;SDS011;12510;56.468;-3.004;2022-08-19T00:28:37;7.35;;;2.22;;
24389;SDS011;12510;56.468;-3.004;2022-08-19T00:31:04;8.15;;;2.38;;
24389;SDS011;12510;56.468;-3.004;2022-08-19T00:33:32;7.85;;;2.55;;
24389;SDS011;12510;56.468;-3.004;2022-08-19T00:35:59;8.93;;;1.90;;
24389;SDS011;12510;56.468;-3.004;2022-08-19T00:38:27;9.68;;;2.88;;
24389;SDS011;12510;56.468;-3.004;2022-08-19T00:40:54;9.27;;;2.38;;
24389;SDS011;12510;56.468;-3.004;2022-08-19T00:43:22;7.85;;;2.60;;
24389;SDS011;12510;56.468;-3.004;2022-08-19T00:45:49;8.80;;;2.78;;
24389;SDS011;12510;56.468;-3.004;2022-08-19T00:48:16;8.38;;;2.90;;
24389;SDS011;12510;56.468;-3.004;2022-08-19T00:50:44;9.40;;;3.17;;
24389;SDS011;12510;56.468;-3.004;2022-08-19T00:53:14;9.10;;;3.10;;
24389;SDS011;12510;56.468;-3.004;2022-08-19T00:55:45;11.63;;;2.80;;
24389;SDS011;12510;56.468;-3.004;2022-08-19T00:58:15;15.20;;;3.40;;
24389;SDS011;12510;56.468;-3.004;2022-08-19T01:00:43;7.30;;;2.72;;
24389;SDS011;12510;56.468;-3.004;2022-08-19T01:03:13;9.00;;;2.58;;
24389;SDS011;12510;56.468;-3.004;2022-08-19T01:05:42;8.98;;;2.83;;
24389;SDS011;12510;56.468;-3.004;2022-08-19T01:08:10;10.60;;;2.72;;
24389;SDS011;12510;56.468;-3.004;2022-08-19T01:10:39;15.52;;;3.75;;
24389;SDS011;12510;56.468;-3.004;2022-08-19T01:13:09;11.65;;;3.67;;
24389;SDS011;12510;56.468;-3.004;2022-08-19T01:15:42;11.52;;;3.72;;
24389;SDS011;12510;56.468;-3.004;2022-08-19T01:18:13;6.65;;;2.40;;
24389;SDS011;12510;56.468;-3.004;2022-08-19T01:20:42;7.15;;;2.90;;
24389;SDS011;12510;56.468;-3.004;2022-08-19T01:23:09;15.02;;;2.90;;
24389;SDS011;12510;56.468;-3.004;2022-08-19T01:25:41;10.45;;;2.95;;
24389;SDS011;12510;56.468;-3.004;2022-08-19T01:28:16;6.25;;;2.65;;
24389;SDS011;12510;56.468;-3.004;2022-08-19T01:30:54;7.38;;;2.60;;
24389;SDS011;12510;56.468;-3.004;2022-08-19T01:33:21;9.07;;;2.63;;
24389;SDS011;12510;56.468;-3.004;2022-08-19T01:35:47;9.27;;;2.63;;
24389;SDS011;12510;56.468;-3.004;2022-08-19T01:38:22;8.10;;;2.83;;
24389;SDS011;12510;56.468;-3.004;2022-08-19T01:40:51;11.02;;;3.10;;
24389;SDS011;12510;56.468;-3.004;2022-08-19T01:43:18;9.25;;;2.47;;
24389;SDS011;12510;56.468;-3.004;2022-08-19T01:45:45;9.18;;;2.22;;
24389;SDS011;12510;56.468;-3.004;2022-08-19T01:48:12;10.63;;;2.67;;
24389;SDS011;12510;56.468;-3.004;2022-08-19T01:50:39;7.13;;;2.83;;
24389;SDS011;12510;56.468;-3.004;2022-08-19T01:53:07;7.20;;;2.35;;
24389;SDS011;12510;56.468;-3.004;2022-08-19T01:55:37;7.68;;;2.30;;
24389;SDS011;12510;56.468;-3.004;2022-08-19T01:58:05;8.98;;;3.38;;
24389;SDS011;12510;56.468;-3.004;2022-08-19T02:00:33;11.00;;;2.90;;
24389;SDS011;12510;56.468;-3.004;2022-08-19T02:03:00;10.55;;;2.92;;
24389;SDS011;12510;56.468;-3.004;2022-08-19T02:05:27;12.57;;;2.70;;
24389;SDS011;12510;56.468;-3.004;2022-08-19T02:07:55;10.32;;;2.65;;
24389;SDS011;12510;56.468;-3.004;2022-08-19T02:10:23;9.25;;;2.65;;
24389;SDS011;12510;56.468;-3.004;2022-08-19T02:12:49;10.43;;;2.78;;
24389;SDS011;12510;56.468;-3.004;2022-08-19T02:15:17;8.68;;;2.60;;
24389;SDS011;12510;56.468;-3.004;2022-08-19T02:17:47;9.07;;;2.58;;
24389;SDS011;12510;56.468;-3.004;2022-08-19T02:20:14;11.68;;;3.47;;
24389;SDS011;12510;56.468;-3.004;2022-08-19T02:22:41;8.43;;;3.20;;
24389;SDS011;12510;56.468;-3.004;2022-08-19T02:25:09;14.50;;;3.47;;
24389;SDS011;12510;56.468;-3.004;2022-08-19T02:27:37;8.70;;;2.87;;
24389;SDS011;12510;56.468;-3.004;2022-08-19T02:30:06;9.65;;;2.72;;
24389;SDS011;12510;56.468;-3.004;2022-08-19T02:32:35;7.35;;;2.80;;
24389;SDS011;12510;56.468;-3.004;2022-08-19T02:35:01;12.18;;;2.75;;
24389;SDS011;12510;56.468;-3.004;2022-08-19T02:37:28;9.05;;;2.45;;
24389;SDS011;12510;56.468;-3.004;2022-08-19T02:40:13;7.32;;;2.67;;
24389;SDS011;12510;56.468;-3.004;2022-08-19T02:42:40;7.13;;;2.53;;
24389;SDS011;12510;56.468;-3.004;2022-08-19T02:45:08;10.27;;;2.80;;
24389;SDS011;12510;56.468;-3.004;2022-08-19T02:47:35;5.10;;;2.08;;
24389;SDS011;12510;56.468;-3.004;2022-08-19T02:50:02;7.75;;;2.50;;
24389;SDS011;12510;56.468;-3.004;2022-08-19T02:52:31;8.43;;;3.35;;
24389;SDS011;12510;56.468;-3.004;2022-08-19T02:54:58;6.93;;;2.30;;
24389;SDS011;12510;56.468;-3.004;2022-08-19T02:57:24;8.32;;;2.33;;
24389;SDS011;12510;56.468;-3.004;2022-08-19T02:59:51;6.30;;;2.47;;
24389;SDS011;12510;56.468;-3.004;2022-08-19T03:02:18;8.68;;;2.53;;
24389;SDS011;12510;56.468;-3.004;2022-08-19T03:04:44;9.77;;;3.17;;
24389;SDS011;12510;56.468;-3.004;2022-08-19T03:07:15;6.10;;;2.08;;
24389;SDS011;12510;56.468;-3.004;2022-08-19T03:09:42;10.00;;;3.33;;
24389;SDS011;12510;56.468;-3.004;2022-08-19T03:12:09;10.63;;;2.85;;
24389;SDS011;12510;56.468;-3.004;2022-08-19T03:14:36;9.93;;;3.22;;
24389;SDS011;12510;56.468;-3.004;2022-08-19T03:17:03;12.02;;;3.70;;
24389;SDS011;12510;56.468;-3.004;2022-08-19T03:19:30;9.68;;;2.75;;
24389;SDS011;12510;56.468;-3.004;2022-08-19T03:21:57;10.18;;;3.70;;
24389;SDS011;12510;56.468;-3.004;2022-08-19T03:24:24;11.45;;;3.03;;
24389;SDS011;12510;56.468;-3.004;2022-08-19T03:26:52;10.05;;;3.30;;
24389;SDS011;12510;56.468;-3.004;2022-08-19T03:29:23;9.60;;;2.72;;
24389;SDS011;12510;56.468;-3.004;2022-08-19T03:31:51;9.65;;;2.33;;
24389;SDS011;12510;56.468;-3.004;2022-08-19T03:34:22;9.07;;;2.85;;
24389;SDS011;12510;56.468;-3.004;2022-08-19T03:36:54;7.43;;;2.63;;
24389;SDS011;12510;56.468;-3.004;2022-08-19T03:39:24;8.95;;;2.83;;
24389;SDS011;12510;56.468;-3.004;2022-08-19T03:41:52;12.85;;;3.30;;
24389;SDS011;12510;56.468;-3.004;2022-08-19T03:44:22;7.75;;;2.72;;
24389;SDS011;12510;56.468;-3.004;2022-08-19T03:46:50;8.23;;;2.50;;
24389;SDS011;12510;56.468;-3.004;2022-08-19T03:49:19;7.38;;;2.55;;
24389;SDS011;12510;56.468;-3.004;2022-08-19T03:51:47;9.75;;;2.70;;
24389;SDS011;12510;56.468;-3.004;2022-08-19T03:54:15;8.05;;;2.85;;
24389;SDS011;12510;56.468;-3.004;2022-08-19T03:56:45;6.68;;;2.45;;
24389;SDS011;12510;56.468;-3.004;2022-08-19T03:59:15;5.83;;;2.10;;
24389;SDS011;12510;56.468;-3.004;2022-08-19T04:01:44;5.95;;;2.45;;
24389;SDS011;12510;56.468;-3.004;2022-08-19T04:04:11;8.80;;;2.75;;
24389;SDS011;12510;56.468;-3.004;2022-08-19T04:06:38;12.27;;;3.85;;
24389;SDS011;12510;56.468;-3.004;2022-08-19T04:09:07;8.00;;;2.92;;
24389;SDS011;12510;56.468;-3.004;2022-08-19T04:14:06;9.40;;;2.47;;
24389;SDS011;12510;56.468;-3.004;2022-08-19T04:16:33;5.63;;;2.70;;
24389;SDS011;12510;56.468;-3.004;2022-08-19T04:19:01;9.85;;;2.80;;
24389;SDS011;12510;56.468;-3.004;2022-08-19T04:21:29;10.30;;;2.80;;
24389;SDS011;12510;56.468;-3.004;2022-08-19T04:23:56;9.80;;;2.75;;
24389;SDS011;12510;56.468;-3.004;2022-08-19T04:26:24;8.02;;;3.67;;
24389;SDS011;12510;56.468;-3.004;2022-08-19T04:28:53;7.82;;;2.63;;
24389;SDS011;12510;56.468;-3.004;2022-08-19T04:31:25;10.18;;;3.67;;
24389;SDS011;12510;56.468;-3.004;2022-08-19T04:33:55;10.02;;;3.00;;
24389;SDS011;12510;56.468;-3.004;2022-08-19T04:36:30;9.00;;;2.85;;
24389;SDS011;12510;56.468;-3.004;2022-08-19T04:39:01;8.80;;;2.65;;
24389;SDS011;12510;56.468;-3.004;2022-08-19T04:41:30;9.88;;;2.67;;
24389;SDS011;12510;56.468;-3.004;2022-08-19T04:44:15;6.82;;;1.77;;
24389;SDS011;12510;56.468;-3.004;2022-08-19T04:46:45;7.28;;;2.75;;
24389;SDS011;12510;56.468;-3.004;2022-08-19T04:49:14;6.53;;;1.80;;
24389;SDS011;12510;56.468;-3.004;2022-08-19T04:51:43;6.15;;;2.53;;
24389;SDS011;12510;56.468;-3.004;2022-08-19T04:54:11;9.38;;;2.90;;
24389;SDS011;12510;56.468;-3.004;2022-08-19T04:56:38;10.02;;;2.47;;
24389;SDS011;12510;56.468;-3.004;2022-08-19T04:59:05;10.55;;;2.90;;
24389;SDS011;12510;56.468;-3.004;2022-08-19T05:01:32;9.73;;;2.63;;
24389;SDS011;12510;56.468;-3.004;2022-08-19T05:04:00;10.18;;;3.17;;
24389;SDS011;12510;56.468;-3.004;2022-08-19T05:06:27;8.40;;;2.35;;
24389;SDS011;12510;56.468;-3.004;2022-08-19T05:08:54;11.07;;;4.15;;
24389;SDS011;12510;56.468;-3.004;2022-08-19T05:11:23;7.13;;;2.25;;
24389;SDS011;12510;56.468;-3.004;2022-08-19T05:13:58;7.80;;;2.90;;
24389;SDS011;12510;56.468;-3.004;2022-08-19T05:16:25;10.55;;;3.22;;
24389;SDS011;12510;56.468;-3.004;2022-08-19T05:18:52;8.80;;;2.35;;
24389;SDS011;12510;56.468;-3.004;2022-08-19T05:21:39;8.13;;;3.55;;
24389;SDS011;12510;56.468;-3.004;2022-08-19T05:24:24;7.03;;;2.47;;
24389;SDS011;12510;56.468;-3.004;2022-08-19T05:26:52;12.25;;;3.42;;
24389;SDS011;12510;56.468;-3.004;2022-08-19T05:29:22;6.28;;;2.53;;
24389;SDS011;12510;56.468;-3.004;2022-08-19T05:31:51;6.78;;;2.15;;
24389;SDS011;12510;56.468;-3.004;2022-08-19T05:34:19;9.13;;;2.95;;
24389;SDS011;12510;56.468;-3.004;2022-08-19T05:36:53;13.23;;;3.33;;
24389;SDS011;12510;56.468;-3.004;2022-08-19T05:39:23;9.85;;;2.70;;
24389;SDS011;12510;56.468;-3.004;2022-08-19T05:41:54;5.85;;;2.38;;
24389;SDS011;12510;56.468;-3.004;2022-08-19T05:44:26;6.25;;;2.40;;
24389;SDS011;12510;56.468;-3.004;2022-08-19T05:46:57;9.43;;;4.05;;
24389;SDS011;12510;56.468;-3.004;2022-08-19T05:49:25;10.00;;;2.92;;
24389;SDS011;12510;56.468;-3.004;2022-08-19T05:51:53;10.00;;;2.72;;
24389;SDS011;12510;56.468;-3.004;2022-08-19T05:54:21;10.05;;;2.80;;
24389;SDS011;12510;56.468;-3.004;2022-08-19T05:56:50;13.27;;;3.38;;
24389;SDS011;12510;56.468;-3.004;2022-08-19T05:59:17;11.70;;;2.55;;
24389;SDS011;12510;56.468;-3.004;2022-08-19T06:01:45;6.40;;;2.15;;
24389;SDS011;12510;56.468;-3.004;2022-08-19T06:04:12;10.90;;;4.13;;
24389;SDS011;12510;56.468;-3.004;2022-08-19T06:06:39;9.18;;;2.63;;
24389;SDS011;12510;56.468;-3.004;2022-08-19T06:09:06;8.45;;;2.42;;
24389;SDS011;12510;56.468;-3.004;2022-08-19T06:11:44;9.18;;;2.65;;
24389;SDS011;12510;56.468;-3.004;2022-08-19T06:14:21;8.30;;;2.65;;
24389;SDS011;12510;56.468;-3.004;2022-08-19T06:16:50;10.43;;;3.08;;
24389;SDS011;12510;56.468;-3.004;2022-08-19T06:19:18;10.57;;;2.80;;
24389;SDS011;12510;56.468;-3.004;2022-08-19T06:21:47;9.20;;;2.40;;
24389;SDS011;12510;56.468;-3.004;2022-08-19T06:24:15;8.23;;;2.65;;
24389;SDS011;12510;56.468;-3.004;2022-08-19T06:26:45;8.40;;;2.38;;
24389;SDS011;12510;56.468;-3.004;2022-08-19T06:29:14;6.47;;;2.47;;
24389;SDS011;12510;56.468;-3.004;2022-08-19T06:31:42;8.43;;;2.35;;
24389;SDS011;12510;56.468;-3.004;2022-08-19T06:34:10;7.47;;;2.40;;
24389;SDS011;12510;56.468;-3.004;2022-08-19T06:36:40;9.05;;;2.45;;
24389;SDS011;12510;56.468;-3.004;2022-08-19T06:39:11;5.07;;;2.03;;
24389;SDS011;12510;56.468;-3.004;2022-08-19T06:41:41;8.77;;;2.95;;
24389;SDS011;12510;56.468;-3.004;2022-08-19T06:44:17;10.68;;;2.25;;
24389;SDS011;12510;56.468;-3.004;2022-08-19T06:46:45;10.95;;;2.88;;
24389;SDS011;12510;56.468;-3.004;2022-08-19T06:49:12;7.03;;;2.35;;
24389;SDS011;12510;56.468;-3.004;2022-08-19T06:51:42;8.77;;;3.00;;
24389;SDS011;12510;56.468;-3.004;2022-08-19T06:54:10;8.88;;;2.67;;
24389;SDS011;12510;56.468;-3.004;2022-08-19T06:56:37;7.75;;;2.40;;
24389;SDS011;12510;56.468;-3.004;2022-08-19T06:59:05;6.38;;;2.60;;
24389;SDS011;12510;56.468;-3.004;2022-08-19T07:01:37;6.18;;;2.47;;
24389;SDS011;12510;56.468;-3.004;2022-08-19T07:04:05;10.00;;;3.00;;
24389;SDS011;12510;56.468;-3.004;2022-08-19T07:06:32;8.52;;;3.08;;
24389;SDS011;12510;56.468;-3.004;2022-08-19T07:08:59;9.27;;;2.95;;
24389;SDS011;12510;56.468;-3.004;2022-08-19T07:11:25;6.60;;;2.60;;
24389;SDS011;12510;56.468;-3.004;2022-08-19T07:13:52;7.00;;;2.10;;
24389;SDS011;12510;56.468;-3.004;2022-08-19T07:16:19;8.75;;;3.00;;
24389;SDS011;12510;56.468;-3.004;2022-08-19T07:18:46;6.55;;;2.50;;
24389;SDS011;12510;56.468;-3.004;2022-08-19T07:21:17;12.07;;;2.75;;
24389;SDS011;12510;56.468;-3.004;2022-08-19T07:23:46;7.78;;;2.17;;
24389;SDS011;12510;56.468;-3.004;2022-08-19T07:26:15;11.98;;;2.97;;
24389;SDS011;12510;56.468;-3.004;2022-08-19T07:28:47;7.80;;;2.25;;
24389;SDS011;12510;56.468;-3.004;2022-08-19T07:31:16;6.15;;;2.15;;
24389;SDS011;12510;56.468;-3.004;2022-08-19T07:33:45;31.45;;;5.82;;
24389;SDS011;12510;56.468;-3.004;2022-08-19T07:36:15;7.68;;;3.03;;
24389;SDS011;12510;56.468;-3.004;2022-08-19T07:38:44;6.32;;;2.72;;
24389;SDS011;12510;56.468;-3.004;2022-08-19T07:41:19;10.85;;;2.63;;
24389;SDS011;12510;56.468;-3.004;2022-08-19T07:43:48;6.05;;;2.10;;
24389;SDS011;12510;56.468;-3.004;2022-08-19T07:46:15;9.90;;;2.30;;
24389;SDS011;12510;56.468;-3.004;2022-08-19T07:48:43;7.15;;;2.85;;
24389;SDS011;12510;56.468;-3.004;2022-08-19T07:51:14;7.22;;;2.47;;
24389;SDS011;12510;56.468;-3.004;2022-08-19T07:53:43;7.05;;;2.40;;
24389;SDS011;12510;56.468;-3.004;2022-08-19T07:56:14;7.07;;;2.63;;
24389;SDS011;12510;56.468;-3.004;2022-08-19T07:58:42;5.65;;;2.40;;
24389;SDS011;12510;56.468;-3.004;2022-08-19T08:01:11;7.60;;;2.60;;
24389;SDS011;12510;56.468;-3.004;2022-08-19T08:03:44;6.55;;;3.03;;
24389;SDS011;12510;56.468;-3.004;2022-08-19T08:06:29;5.30;;;2.47;;
24389;SDS011;12510;56.468;-3.004;2022-08-19T08:09:15;6.82;;;2.22;;
24389;SDS011;12510;56.468;-3.004;2022-08-19T08:11:51;6.85;;;3.38;;
24389;SDS011;12510;56.468;-3.004;2022-08-19T08:14:24;6.80;;;2.70;;
24389;SDS011;12510;56.468;-3.004;2022-08-19T08:16:56;5.88;;;1.95;;
24389;SDS011;12510;56.468;-3.004;2022-08-19T08:19:23;5.68;;;2.10;;
24389;SDS011;12510;56.468;-3.004;2022-08-19T08:21:52;6.15;;;2.20;;
24389;SDS011;12510;56.468;-3.004;2022-08-19T08:24:20;3.77;;;1.90;;
24389;SDS011;12510;56.468;-3.004;2022-08-19T08:26:48;4.38;;;1.65;;
24389;SDS011;12510;56.468;-3.004;2022-08-19T08:29:14;6.07;;;1.58;;
24389;SDS011;12510;56.468;-3.004;2022-08-19T08:31:42;6.03;;;2.03;;
24389;SDS011;12510;56.468;-3.004;2022-08-19T08:34:10;5.40;;;2.03;;
24389;SDS011;12510;56.468;-3.004;2022-08-19T08:36:41;3.67;;;1.77;;
24389;SDS011;12510;56.468;-3.004;2022-08-19T08:39:14;5.10;;;1.90;;
24389;SDS011;12510;56.468;-3.004;2022-08-19T08:41:44;7.00;;;2.20;;
24389;SDS011;12510;56.468;-3.004;2022-08-19T08:47:03;6.38;;;2.25;;
24389;SDS011;12510;56.468;-3.004;2022-08-19T08:52:21;7.72;;;2.28;;
24389;SDS011;12510;56.468;-3.004;2022-08-19T08:54:52;4.97;;;1.58;;
24389;SDS011;12510;56.468;-3.004;2022-08-19T08:57:37;6.55;;;1.73;;
24389;SDS011;12510;56.468;-3.004;2022-08-19T09:00:20;5.40;;;1.67;;
24389;SDS011;12510;56.468;-3.004;2022-08-19T09:02:49;12.45;;;3.08;;
24389;SDS011;12510;56.468;-3.004;2022-08-19T09:05:16;8.18;;;2.60;;
24389;SDS011;12510;56.468;-3.004;2022-08-19T09:08:08;7.38;;;1.83;;
24389;SDS011;12510;56.468;-3.004;2022-08-19T09:10:44;4.97;;;2.42;;
24389;SDS011;12510;56.468;-3.004;2022-08-19T09:13:24;4.10;;;1.90;;
24389;SDS011;12510;56.468;-3.004;2022-08-19T09:16:19;5.88;;;1.85;;
24389;SDS011;12510;56.468;-3.004;2022-08-19T09:18:53;4.80;;;1.88;;
24389;SDS011;12510;56.468;-3.004;2022-08-19T09:21:23;5.35;;;1.73;;
24389;SDS011;12510;56.468;-3.004;2022-08-19T09:23:51;3.95;;;1.33;;
24389;SDS011;12510;56.468;-3.004;2022-08-19T09:26:19;4.38;;;1.60;;
24389;SDS011;12510;56.468;-3.004;2022-08-19T09:28:48;5.27;;;1.97;;
24389;SDS011;12510;56.468;-3.004;2022-08-19T09:31:20;9.90;;;2.07;;
24389;SDS011;12510;56.468;-3.004;2022-08-19T09:33:49;11.02;;;2.30;;
24389;SDS011;12510;56.468;-3.004;2022-08-19T09:36:18;3.90;;;1.85;;
24389;SDS011;12510;56.468;-3.004;2022-08-19T09:38:48;5.03;;;2.38;;
24389;SDS011;12510;56.468;-3.004;2022-08-19T09:41:16;5.13;;;1.98;;
24389;SDS011;12510;56.468;-3.004;2022-08-19T09:46:11;3.75;;;1.67;;
24389;SDS011;12510;56.468;-3.004;2022-08-19T09:48:39;4.78;;;1.80;;
24389;SDS011;12510;56.468;-3.004;2022-08-19T09:53:36;3.55;;;1.85;;
24389;SDS011;12510;56.468;-3.004;2022-08-19T09:56:04;5.22;;;2.25;;
24389;SDS011;12510;56.468;-3.004;2022-08-19T09:58:31;4.80;;;2.13;;
24389;SDS011;12510;56.468;-3.004;2022-08-19T10:00:59;4.10;;;1.98;;
24389;SDS011;12510;56.468;-3.004;2022-08-19T10:03:27;3.70;;;1.50;;
24389;SDS011;12510;56.468;-3.004;2022-08-19T10:05:56;4.07;;;1.80;;
24389;SDS011;12510;56.468;-3.004;2022-08-19T10:08:26;4.07;;;1.20;;
24389;SDS011;12510;56.468;-3.004;2022-08-19T10:10:55;4.60;;;1.85;;
24389;SDS011;12510;56.468;-3.004;2022-08-19T10:13:23;6.40;;;1.90;;
24389;SDS011;12510;56.468;-3.004;2022-08-19T10:15:53;4.88;;;1.52;;
24389;SDS011;12510;56.468;-3.004;2022-08-19T10:18:22;4.40;;;2.03;;
24389;SDS011;12510;56.468;-3.004;2022-08-19T10:20:50;4.65;;;1.60;;
24389;SDS011;12510;56.468;-3.004;2022-08-19T10:23:18;5.55;;;2.22;;
24389;SDS011;12510;56.468;-3.004;2022-08-19T10:25:46;5.05;;;1.58;;
24389;SDS011;12510;56.468;-3.004;2022-08-19T10:28:13;2.67;;;1.60;;
24389;SDS011;12510;56.468;-3.004;2022-08-19T10:30:40;4.57;;;1.48;;
24389;SDS011;12510;56.468;-3.004;2022-08-19T10:33:07;2.92;;;1.45;;
24389;SDS011;12510;56.468;-3.004;2022-08-19T10:35:34;4.45;;;1.95;;
24389;SDS011;12510;56.468;-3.004;2022-08-19T10:38:02;4.78;;;1.88;;
24389;SDS011;12510;56.468;-3.004;2022-08-19T10:40:29;4.82;;;1.65;;
24389;SDS011;12510;56.468;-3.004;2022-08-19T10:42:55;6.65;;;2.08;;
24389;SDS011;12510;56.468;-3.004;2022-08-19T10:45:22;6.32;;;1.63;;
24389;SDS011;12510;56.468;-3.004;2022-08-19T10:47:55;3.72;;;2.35;;
24389;SDS011;12510;56.468;-3.004;2022-08-19T10:50:21;3.65;;;1.60;;
24389;SDS011;12510;56.468;-3.004;2022-08-19T10:53:07;6.40;;;1.83;;
24389;SDS011;12510;56.468;-3.004;2022-08-19T10:55:36;6.13;;;1.50;;
24389;SDS011;12510;56.468;-3.004;2022-08-19T10:58:21;4.07;;;1.40;;
24389;SDS011;12510;56.468;-3.004;2022-08-19T11:00:57;4.30;;;1.92;;
24389;SDS011;12510;56.468;-3.004;2022-08-19T11:03:25;6.70;;;1.63;;
24389;SDS011;12510;56.468;-3.004;2022-08-19T11:06:00;5.70;;;1.60;;
24389;SDS011;12510;56.468;-3.004;2022-08-19T11:08:32;3.80;;;1.55;;
24389;SDS011;12510;56.468;-3.004;2022-08-19T11:11:01;4.53;;;1.65;;
24389;SDS011;12510;56.468;-3.004;2022-08-19T11:13:29;4.40;;;2.10;;
24389;SDS011;12510;56.468;-3.004;2022-08-19T11:16:02;5.35;;;1.42;;
24389;SDS011;12510;56.468;-3.004;2022-08-19T11:18:34;4.35;;;1.73;;
24389;SDS011;12510;56.468;-3.004;2022-08-19T11:21:06;5.15;;;1.73;;
24389;SDS011;12510;56.468;-3.004;2022-08-19T11:23:33;3.35;;;1.55;;
24389;SDS011;12510;56.468;-3.004;2022-08-19T11:26:00;4.93;;;1.80;;
24389;SDS011;12510;56.468;-3.004;2022-08-19T11:28:27;5.32;;;1.75;;
24389;SDS011;12510;56.468;-3.004;2022-08-19T11:30:54;4.68;;;1.60;;
24389;SDS011;12510;56.468;-3.004;2022-08-19T11:33:20;3.85;;;1.60;;
24389;SDS011;12510;56.468;-3.004;2022-08-19T11:35:47;3.90;;;1.55;;
24389;SDS011;12510;56.468;-3.004;2022-08-19T11:38:15;6.13;;;2.25;;
24389;SDS011;12510;56.468;-3.004;2022-08-19T11:40:41;6.43;;;1.60;;
24389;SDS011;12510;56.468;-3.004;2022-08-19T11:43:08;3.80;;;1.50;;
24389;SDS011;12510;56.468;-3.004;2022-08-19T11:45:35;7.35;;;2.15;;
24389;SDS011;12510;56.468;-3.004;2022-08-19T11:48:01;6.88;;;2.33;;
24389;SDS011;12510;56.468;-3.004;2022-08-19T11:50:29;7.13;;;2.45;;
24389;SDS011;12510;56.468;-3.004;2022-08-19T11:52:56;5.32;;;1.98;;
24389;SDS011;12510;56.468;-3.004;2022-08-19T11:55:23;6.22;;;2.05;;
24389;SDS011;12510;56.468;-3.004;2022-08-19T11:57:49;4.65;;;1.70;;
24389;SDS011;12510;56.468;-3.004;2022-08-19T12:00:16;3.72;;;1.40;;
24389;SDS011;12510;56.468;-3.004;2022-08-19T12:02:42;5.30;;;1.77;;
24389;SDS011;12510;56.468;-3.004;2022-08-19T12:05:09;5.90;;;2.22;;
24389;SDS011;12510;56.468;-3.004;2022-08-19T12:07:36;4.95;;;1.83;;
24389;SDS011;12510;56.468;-3.004;2022-08-19T12:10:02;4.68;;;1.67;;
24389;SDS011;12510;56.468;-3.004;2022-08-19T12:12:29;4.18;;;1.10;;
24389;SDS011;12510;56.468;-3.004;2022-08-19T12:14:55;6.00;;;1.67;;
24389;SDS011;12510;56.468;-3.004;2022-08-19T12:17:24;3.70;;;1.23;;
24389;SDS011;12510;56.468;-3.004;2022-08-19T12:19:52;5.15;;;1.80;;
24389;SDS011;12510;56.468;-3.004;2022-08-19T12:22:19;6.38;;;2.00;;
24389;SDS011;12510;56.468;-3.004;2022-08-19T12:24:46;5.18;;;1.95;;
24389;SDS011;12510;56.468;-3.004;2022-08-19T12:27:14;3.17;;;1.30;;
24389;SDS011;12510;56.468;-3.004;2022-08-19T12:29:40;3.65;;;1.25;;
24389;SDS011;12510;56.468;-3.004;2022-08-19T12:32:07;7.25;;;1.50;;
24389;SDS011;12510;56.468;-3.004;2022-08-19T12:34:34;6.68;;;1.95;;
24389;SDS011;12510;56.468;-3.004;2022-08-19T12:37:03;8.45;;;1.70;;
24389;SDS011;12510;56.468;-3.004;2022-08-19T12:39:34;2.28;;;1.08;;
24389;SDS011;12510;56.468;-3.004;2022-08-19T12:42:05;3.03;;;1.25;;
24389;SDS011;12510;56.468;-3.004;2022-08-19T12:44:33;3.10;;;1.63;;
24389;SDS011;12510;56.468;-3.004;2022-08-19T12:46:59;4.20;;;1.40;;
24389;SDS011;12510;56.468;-3.004;2022-08-19T12:49:27;4.35;;;1.08;;
24389;SDS011;12510;56.468;-3.004;2022-08-19T12:51:55;3.35;;;1.30;;
24389;SDS011;12510;56.468;-3.004;2022-08-19T12:54:21;3.08;;;1.30;;
24389;SDS011;12510;56.468;-3.004;2022-08-19T12:56:47;2.10;;;1.15;;
24389;SDS011;12510;56.468;-3.004;2022-08-19T12:59:14;7.38;;;1.52;;
24389;SDS011;12510;56.468;-3.004;2022-08-19T13:01:43;2.63;;;1.27;;
24389;SDS011;12510;56.468;-3.004;2022-08-19T13:04:10;4.43;;;1.65;;
24389;SDS011;12510;56.468;-3.004;2022-08-19T13:06:36;2.17;;;1.15;;
24389;SDS011;12510;56.468;-3.004;2022-08-19T13:09:03;8.48;;;4.35;;
24389;SDS011;12510;56.468;-3.004;2022-08-19T13:11:30;5.38;;;1.35;;
24389;SDS011;12510;56.468;-3.004;2022-08-19T13:16:27;6.32;;;1.50;;
24389;SDS011;12510;56.468;-3.004;2022-08-19T13:18:54;3.78;;;1.60;;
24389;SDS011;12510;56.468;-3.004;2022-08-19T13:21:26;3.97;;;1.55;;
24389;SDS011;12510;56.468;-3.004;2022-08-19T13:23:56;6.00;;;1.70;;
24389;SDS011;12510;56.468;-3.004;2022-08-19T13:26:23;3.83;;;1.70;;
24389;SDS011;12510;56.468;-3.004;2022-08-19T13:28:50;5.20;;;1.50;;
24389;SDS011;12510;56.468;-3.004;2022-08-19T13:31:36;5.80;;;1.45;;
24389;SDS011;12510;56.468;-3.004;2022-08-19T13:34:27;7.13;;;1.75;;
24389;SDS011;12510;56.468;-3.004;2022-08-19T13:36:59;3.42;;;1.42;;
24389;SDS011;12510;56.468;-3.004;2022-08-19T13:39:29;4.18;;;1.20;;
24389;SDS011;12510;56.468;-3.004;2022-08-19T13:41:56;2.65;;;1.25;;
24389;SDS011;12510;56.468;-3.004;2022-08-19T13:44:23;4.00;;;0.90;;
24389;SDS011;12510;56.468;-3.004;2022-08-19T13:46:49;11.73;;;1.50;;
24389;SDS011;12510;56.468;-3.004;2022-08-19T13:49:18;5.10;;;1.30;;
24389;SDS011;12510;56.468;-3.004;2022-08-19T13:51:46;4.03;;;1.00;;
24389;SDS011;12510;56.468;-3.004;2022-08-19T13:54:12;3.22;;;0.95;;
24389;SDS011;12510;56.468;-3.004;2022-08-19T13:56:40;3.53;;;1.25;;
24389;SDS011;12510;56.468;-3.004;2022-08-19T13:59:08;4.55;;;1.33;;
24389;SDS011;12510;56.468;-3.004;2022-08-19T14:01:35;3.05;;;1.10;;
24389;SDS011;12510;56.468;-3.004;2022-08-19T14:04:02;2.88;;;1.15;;
24389;SDS011;12510;56.468;-3.004;2022-08-19T14:06:29;2.53;;;1.33;;
24389;SDS011;12510;56.468;-3.004;2022-08-19T14:08:56;3.55;;;1.58;;
24389;SDS011;12510;56.468;-3.004;2022-08-19T14:11:22;5.18;;;1.27;;
24389;SDS011;12510;56.468;-3.004;2022-08-19T14:13:49;3.70;;;1.00;;
24389;SDS011;12510;56.468;-3.004;2022-08-19T14:16:16;2.78;;;1.08;;
24389;SDS011;12510;56.468;-3.004;2022-08-19T14:18:42;5.47;;;1.40;;
24389;SDS011;12510;56.468;-3.004;2022-08-19T14:21:18;3.20;;;1.42;;
24389;SDS011;12510;56.468;-3.004;2022-08-19T14:23:48;3.13;;;0.88;;
24389;SDS011;12510;56.468;-3.004;2022-08-19T14:26:15;5.50;;;1.58;;
24389;SDS011;12510;56.468;-3.004;2022-08-19T14:31:11;7.82;;;1.88;;
24389;SDS011;12510;56.468;-3.004;2022-08-19T14:33:42;2.30;;;0.82;;
24389;SDS011;12510;56.468;-3.004;2022-08-19T14:36:08;3.17;;;1.27;;
24389;SDS011;12510;56.468;-3.004;2022-08-19T14:38:35;3.58;;;1.05;;
24389;SDS011;12510;56.468;-3.004;2022-08-19T14:41:06;3.95;;;1.20;;
24389;SDS011;12510;56.468;-3.004;2022-08-19T14:43:43;3.47;;;0.80;;
24389;SDS011;12510;56.468;-3.004;2022-08-19T14:46:14;4.20;;;1.10;;
24389;SDS011;12510;56.468;-3.004;2022-08-19T14:48:43;4.88;;;1.05;;
24389;SDS011;12510;56.468;-3.004;2022-08-19T14:51:10;2.78;;;0.90;;
24389;SDS011;12510;56.468;-3.004;2022-08-19T14:53:37;5.78;;;2.63;;
24389;SDS011;12510;56.468;-3.004;2022-08-19T14:56:08;2.47;;;0.77;;
24389;SDS011;12510;56.468;-3.004;2022-08-19T14:58:40;1.75;;;0.80;;
24389;SDS011;12510;56.468;-3.004;2022-08-19T15:01:08;3.40;;;0.77;;
24389;SDS011;12510;56.468;-3.004;2022-08-19T15:03:35;2.20;;;1.05;;